Time,TemperatureF,DewpointF,PressureIn,WindDirection,WindDirectionDegrees,WindSpeedMPH,WindSpeedGustMPH,Humidity,HourlyPrecipIn,Conditions,Clouds,dailyrainin,SoftwareType,DateUTC
2013-02-21 00:09:00,42.6,35.0,29.80,East,79,5.0,13.0,75,0.00,,,0.00,weatherlink.com 1.10,2013-02-21 06:09:00,
2013-02-21 00:24:00,42.9,36.0,29.80,East,98,8.0,10.0,75,0.00,,,0.00,weatherlink.com 1.10,2013-02-21 06:24:00,
2013-02-21 00:39:00,43.0,36.0,29.80,ESE,117,4.0,12.0,76,0.00,,,0.00,weatherlink.com 1.10,2013-02-21 06:39:00,
2013-02-21 00:54:00,43.2,36.0,29.79,East,80,7.0,12.0,75,0.00,,,0.00,weatherlink.com 1.10,2013-02-21 06:54:00,
2013-02-21 01:09:00,43.4,37.0,29.78,East,94,5.0,11.0,77,0.00,,,0.00,weatherlink.com 1.10,2013-02-21 07:09:00,
2013-02-21 01:24:00,43.6,37.0,29.79,East,87,6.0,9.0,76,0.00,,,0.00,weatherlink.com 1.10,2013-02-21 07:24:00,
2013-02-21 01:39:00,44.0,37.0,29.79,East,82,9.0,10.0,75,0.00,,,0.00,weatherlink.com 1.10,2013-02-21 07:39:00,
2013-02-21 01:54:00,44.2,37.0,29.79,East,98,7.0,11.0,75,0.00,,,0.00,weatherlink.com 1.10,2013-02-21 07:54:00,
2013-02-21 02:09:00,44.5,38.0,29.80,ENE,68,4.0,6.0,77,0.00,,,0.00,weatherlink.com 1.10,2013-02-21 08:09:00,
2013-02-21 02:24:00,44.2,38.0,29.79,ENE,70,3.0,5.0,79,0.00,,,0.00,weatherlink.com 1.10,2013-02-21 08:24:00,
2013-02-21 02:39:00,44.3,39.0,29.79,East,82,3.0,4.0,80,0.00,,,0.00,weatherlink.com 1.10,2013-02-21 08:39:00,
2013-02-21 02:54:00,44.2,39.0,29.77,ESE,105,5.0,6.0,81,0.00,,,0.00,weatherlink.com 1.10,2013-02-21 08:54:00,
2013-02-21 03:09:00,44.0,39.0,29.75,East,90,7.0,7.0,83,0.01,,,0.01,weatherlink.com 1.10,2013-02-21 09:09:00,
2013-02-21 03:24:00,43.6,39.0,29.74,ENE,68,3.0,7.0,85,0.01,,,0.01,weatherlink.com 1.10,2013-02-21 09:24:00,
2013-02-21 03:39:00,43.8,40.0,29.72,East,88,8.0,11.0,85,0.01,,,0.01,weatherlink.com 1.10,2013-02-21 09:39:00,
2013-02-21 03:54:00,44.0,40.0,29.71,ENE,65,9.0,11.0,85,0.01,,,0.01,weatherlink.com 1.10,2013-02-21 09:54:00,
2013-02-21 04:09:00,44.4,40.0,29.71,East,79,4.0,9.0,85,0.00,,,0.01,weatherlink.com 1.10,2013-02-21 10:09:00,
2013-02-21 04:24:00,44.7,41.0,29.71,East,83,6.0,8.0,86,0.00,,,0.01,weatherlink.com 1.10,2013-02-21 10:24:00,
2013-02-21 04:39:00,44.9,41.0,29.71,East,92,6.0,7.0,86,0.00,,,0.01,weatherlink.com 1.10,2013-02-21 10:39:00,
2013-02-21 04:54:00,45.1,41.0,29.69,ENE,75,5.0,13.0,86,0.00,,,0.01,weatherlink.com 1.10,2013-02-21 10:54:00,
2013-02-21 05:09:00,45.1,42.0,29.67,East,101,11.0,15.0,87,0.00,,,0.01,weatherlink.com 1.10,2013-02-21 11:09:00,
2013-02-21 05:24:00,45.6,42.0,29.66,SE,125,9.0,13.0,87,0.00,,,0.01,weatherlink.com 1.10,2013-02-21 11:24:00,
2013-02-21 05:40:00,45.7,42.0,29.66,East,82,6.0,16.0,88,0.00,,,0.01,weatherlink.com 1.10,2013-02-21 11:40:00,
2013-02-21 05:55:00,45.9,43.0,29.66,East,90,10.0,13.0,88,0.00,,,0.01,weatherlink.com 1.10,2013-02-21 11:55:00,
2013-02-21 06:10:00,46.1,43.0,29.66,East,79,4.0,15.0,87,0.00,,,0.01,weatherlink.com 1.10,2013-02-21 12:10:00,
2013-02-21 06:25:00,46.4,43.0,29.66,SE,135,5.0,13.0,88,0.00,,,0.01,weatherlink.com 1.10,2013-02-21 12:25:00,
2013-02-21 06:40:00,47.1,44.0,29.66,ESE,121,5.0,15.0,89,0.00,,,0.01,weatherlink.com 1.10,2013-02-21 12:40:00,
2013-02-21 06:55:00,47.6,45.0,29.64,SE,125,8.0,15.0,90,0.00,,,0.01,weatherlink.com 1.10,2013-02-21 12:55:00,
2013-02-21 07:10:00,47.7,45.0,29.63,SE,129,13.0,16.0,91,0.00,,,0.01,weatherlink.com 1.10,2013-02-21 13:10:00,
2013-02-21 07:25:00,48.1,46.0,29.64,SE,139,5.0,14.0,93,0.00,,,0.01,weatherlink.com 1.10,2013-02-21 13:25:00,
2013-02-21 07:40:00,48.8,47.0,29.65,SE,139,8.0,17.0,93,0.00,,,0.01,weatherlink.com 1.10,2013-02-21 13:40:00,
2013-02-21 07:55:00,49.4,48.0,29.69,WNW,300,18.0,18.0,93,0.00,,,0.01,weatherlink.com 1.10,2013-02-21 13:55:00,
2013-02-21 08:10:00,48.4,46.0,29.76,WNW,300,7.0,18.0,91,0.02,,,0.03,weatherlink.com 1.10,2013-02-21 14:10:00,
2013-02-21 08:25:00,47.2,45.0,29.74,North,356,5.0,15.0,93,0.18,,,0.19,weatherlink.com 1.10,2013-02-21 14:25:00,
2013-02-21 08:40:00,46.8,45.0,29.76,NW,326,8.0,9.0,94,0.30,,,0.31,weatherlink.com 1.10,2013-02-21 14:40:00,
2013-02-21 08:55:00,46.6,45.0,29.76,NW,326,3.0,9.0,94,0.30,,,0.31,weatherlink.com 1.10,2013-02-21 14:55:00,
2013-02-21 09:10:00,46.7,45.0,29.76,ENE,65,3.0,9.0,94,0.27,,,0.31,weatherlink.com 1.10,2013-02-21 15:10:00,
2013-02-21 09:25:00,47.0,45.0,29.76,ENE,63,2.0,5.0,93,0.10,,,0.31,weatherlink.com 1.10,2013-02-21 15:25:00,
2013-02-21 09:40:00,47.6,45.0,29.76,ENE,57,5.0,6.0,92,0.00,,,0.31,weatherlink.com 1.10,2013-02-21 15:40:00,
2013-02-21 09:55:00,48.1,46.0,29.75,NNW,340,5.0,5.0,91,0.00,,,0.31,weatherlink.com 1.10,2013-02-21 15:55:00,
2013-02-21 10:10:00,49.3,47.0,29.75,NW,319,4.0,4.0,90,0.00,,,0.31,weatherlink.com 1.10,2013-02-21 16:10:00,
2013-02-21 10:25:00,49.5,46.0,29.75,WNW,300,2.0,5.0,89,0.00,,,0.31,weatherlink.com 1.10,2013-02-21 16:25:00,
2013-02-21 10:40:00,50.4,47.0,29.76,NW,304,1.0,3.0,88,0.00,,,0.31,weatherlink.com 1.10,2013-02-21 16:40:00,
2013-02-21 10:55:00,51.3,48.0,29.77,NW,304,3.0,4.0,87,0.00,,,0.31,weatherlink.com 1.10,2013-02-21 16:55:00,
2013-02-21 11:10:00,52.1,48.0,29.78,WNW,284,2.0,6.0,86,0.00,,,0.31,weatherlink.com 1.10,2013-02-21 17:10:00,
2013-02-21 11:25:00,53.6,49.0,29.78,SW,229,5.0,9.0,83,0.00,,,0.31,weatherlink.com 1.10,2013-02-21 17:25:00,
2013-02-21 11:40:00,54.4,47.0,29.77,WNW,288,6.0,9.0,77,0.00,,,0.31,weatherlink.com 1.10,2013-02-21 17:40:00,
2013-02-21 11:55:00,56.0,47.0,29.76,West,261,4.0,9.0,71,0.00,,,0.31,weatherlink.com 1.10,2013-02-21 17:55:00,
2013-02-21 12:10:00,57.4,47.0,29.76,WNW,285,4.0,10.0,69,0.00,,,0.31,weatherlink.com 1.10,2013-02-21 18:10:00,
2013-02-21 12:25:00,58.1,46.0,29.76,West,281,5.0,13.0,65,0.00,,,0.31,weatherlink.com 1.10,2013-02-21 18:25:00,
2013-02-21 12:40:00,58.7,43.0,29.75,West,277,10.0,18.0,56,0.00,,,0.31,weatherlink.com 1.10,2013-02-21 18:40:00,
2013-02-21 12:56:00,58.8,42.0,29.75,WNW,290,8.0,13.0,55,0.00,,,0.31,weatherlink.com 1.10,2013-02-21 18:56:00,
2013-02-21 13:11:00,60.0,41.0,29.73,West,277,6.0,14.0,49,0.00,,,0.31,weatherlink.com 1.10,2013-02-21 19:11:00,
2013-02-21 13:26:00,61.4,38.0,29.73,NW,308,15.0,16.0,42,0.00,,,0.31,weatherlink.com 1.10,2013-02-21 19:26:00,
2013-02-21 13:41:00,61.8,37.0,29.72,WSW,243,9.0,13.0,40,0.00,,,0.31,weatherlink.com 1.10,2013-02-21 19:41:00,
2013-02-21 13:56:00,63.4,38.0,29.71,WNW,300,5.0,14.0,39,0.00,,,0.31,weatherlink.com 1.10,2013-02-21 19:56:00,
2013-02-21 14:11:00,63.5,39.0,29.71,WSW,249,7.0,11.0,40,0.00,,,0.31,weatherlink.com 1.10,2013-02-21 20:11:00,
2013-02-21 14:26:00,64.6,39.0,29.70,WNW,293,4.0,-999.0,39,-99.99,,,0.31,weatherlink.com 1.10,2013-02-21 20:26:00,
2013-02-21 14:41:00,65.6,37.0,29.70,WSW,243,6.0,12.0,35,0.00,,,0.31,weatherlink.com 1.10,2013-02-21 20:41:00,
2013-02-21 14:56:00,66.3,33.0,29.70,West,271,6.0,17.0,29,0.00,,,0.31,weatherlink.com 1.10,2013-02-21 20:56:00,
2013-02-21 15:11:00,67.3,28.0,29.71,WNW,296,11.0,18.0,23,0.00,,,0.31,weatherlink.com 1.10,2013-02-21 21:11:00,
2013-02-21 15:26:00,67.8,27.0,29.71,WSW,248,13.0,20.0,22,0.00,,,0.31,weatherlink.com 1.10,2013-02-21 21:26:00,
2013-02-21 15:41:00,68.2,26.0,29.71,West,276,13.0,18.0,20,0.00,,,0.31,weatherlink.com 1.10,2013-02-21 21:41:00,
2013-02-21 15:56:00,68.5,25.0,29.71,West,274,10.0,21.0,19,0.00,,,0.31,weatherlink.com 1.10,2013-02-21 21:56:00,
2013-02-21 16:11:00,68.4,23.0,29.72,WNW,291,7.0,20.0,18,0.00,,,0.31,weatherlink.com 1.10,2013-02-21 22:11:00,
2013-02-21 16:26:00,68.6,23.0,29.73,WNW,289,14.0,18.0,18,0.00,,,0.31,weatherlink.com 1.10,2013-02-21 22:26:00,
2013-02-21 16:41:00,68.6,23.0,29.73,WSW,245,10.0,21.0,18,0.00,,,0.31,weatherlink.com 1.10,2013-02-21 22:41:00,
2013-02-21 16:56:00,68.9,25.0,29.73,WNW,290,6.0,13.0,19,0.00,,,0.31,weatherlink.com 1.10,2013-02-21 22:56:00,
2013-02-21 17:11:00,68.3,24.0,29.74,West,274,11.0,20.0,19,0.00,,,0.31,weatherlink.com 1.10,2013-02-21 23:11:00,
2013-02-21 17:26:00,67.9,26.0,29.74,NW,314,7.0,16.0,21,0.00,,,0.31,weatherlink.com 1.10,2013-02-21 23:26:00,
2013-02-21 17:41:00,67.2,28.0,29.75,WNW,295,8.0,18.0,23,0.00,,,0.31,weatherlink.com 1.10,2013-02-21 23:41:00,
2013-02-21 17:56:00,66.3,29.0,29.77,West,274,9.0,17.0,25,0.00,,,0.31,weatherlink.com 1.10,2013-02-21 23:56:00,
2013-02-21 18:11:00,65.3,30.0,29.78,WNW,288,3.0,14.0,27,0.00,,,0.31,weatherlink.com 1.10,2013-02-22 00:11:00,
2013-02-21 18:26:00,64.4,31.0,29.79,WNW,298,4.0,13.0,29,0.00,,,0.31,weatherlink.com 1.10,2013-02-22 00:26:00,
2013-02-21 18:41:00,63.9,32.0,29.80,WNW,295,6.0,12.0,30,0.00,,,0.31,weatherlink.com 1.10,2013-02-22 00:41:00,
2013-02-21 18:56:00,63.1,32.0,29.81,WNW,289,3.0,13.0,31,0.00,,,0.31,weatherlink.com 1.10,2013-02-22 00:56:00,
2013-02-21 19:11:00,62.2,33.0,29.81,West,268,3.0,4.0,33,0.00,,,0.31,weatherlink.com 1.10,2013-02-22 01:11:00,
2013-02-21 19:26:00,61.6,33.0,29.82,WNW,297,2.0,5.0,34,0.00,,,0.31,weatherlink.com 1.10,2013-02-22 01:26:00,
2013-02-21 19:41:00,61.0,33.0,29.83,WNW,286,2.0,4.0,35,0.00,,,0.31,weatherlink.com 1.10,2013-02-22 01:41:00,
2013-02-21 19:56:00,60.7,33.0,29.83,SW,226,3.0,4.0,36,0.00,,,0.31,weatherlink.com 1.10,2013-02-22 01:56:00,
2013-02-21 20:12:00,60.0,33.0,29.84,West,281,3.0,6.0,36,0.00,,,0.31,weatherlink.com 1.10,2013-02-22 02:12:00,
2013-02-21 20:27:00,59.9,33.0,29.84,WNW,286,3.0,5.0,36,0.00,,,0.31,weatherlink.com 1.10,2013-02-22 02:27:00,
2013-02-21 20:42:00,59.9,33.0,29.85,West,279,5.0,7.0,36,0.00,,,0.31,weatherlink.com 1.10,2013-02-22 02:42:00,
2013-02-21 20:57:00,59.3,35.0,29.88,NNW,335,10.0,21.0,41,0.00,,,0.31,weatherlink.com 1.10,2013-02-22 02:57:00,
2013-02-21 21:12:00,56.8,39.0,29.89,NW,319,6.0,20.0,52,0.00,,,0.31,weatherlink.com 1.10,2013-02-22 03:12:00,
2013-02-21 21:27:00,52.9,40.0,29.92,NW,325,13.0,15.0,61,0.00,,,0.31,weatherlink.com 1.10,2013-02-22 03:27:00,
2013-02-21 21:42:00,51.4,39.0,29.94,WNW,300,13.0,16.0,63,0.00,,,0.31,weatherlink.com 1.10,2013-02-22 03:42:00,
2013-02-21 21:57:00,50.3,38.0,29.93,NW,314,7.0,15.0,64,0.00,,,0.31,weatherlink.com 1.10,2013-02-22 03:57:00,
2013-02-21 22:12:00,49.6,39.0,29.94,North,360,7.0,10.0,66,0.00,,,0.31,weatherlink.com 1.10,2013-02-22 04:12:00,
2013-02-21 22:27:00,49.0,38.0,29.95,NNW,346,8.0,11.0,67,0.00,,,0.31,weatherlink.com 1.10,2013-02-22 04:27:00,
2013-02-21 22:42:00,48.5,38.0,29.95,NNE,18,6.0,11.0,68,0.00,,,0.31,weatherlink.com 1.10,2013-02-22 04:42:00,
2013-02-21 22:57:00,48.1,38.0,29.96,North,6,2.0,11.0,68,0.00,,,0.31,weatherlink.com 1.10,2013-02-22 04:57:00,
2013-02-21 23:12:00,47.4,38.0,29.96,NNE,22,9.0,11.0,69,0.00,,,0.31,weatherlink.com 1.10,2013-02-22 05:12:00,
2013-02-21 23:27:00,47.0,38.0,29.95,NW,325,2.0,10.0,70,0.00,,,0.31,weatherlink.com 1.10,2013-02-22 05:27:00,
2013-02-21 23:42:00,46.4,37.0,29.95,NNW,333,7.0,15.0,71,0.00,,,0.31,weatherlink.com 1.10,2013-02-22 05:42:00,
2013-02-21 23:57:00,45.9,37.0,29.95,NNW,344,8.0,16.0,72,0.00,,,0.31,weatherlink.com 1.10,2013-02-22 05:57:00,